KDSV

Details ICAO KDSV
Name DANSVILLE MUNI
Region United States
Timezone America/New_York (UTC-4.0)
Plans Departing 0
Arriving 3
Stats Elevation 662 ft / 202 m (AMSL)
Location 42.570745° -77.712933°
Runways 2
Magnetic Variation 11.262° W
Sunrise 2018-05-21 09:44:40 UTC / 2018-05-21 05:44:40 Local
Sunset 2018-05-22 00:33:06 UTC / 2018-05-21 20:33:06 Local
Advertisement - Login to hide

Runways

ID Width Length Bearing (true) Bearing (mag) Surface Threshold Offset Overrun Length
14 100 ft / 30 m 3,357 ft / 1,023 m 128.22° 139.48° Asphalt 0 ft / 0 m 0 ft / 0 m
18 100 ft / 30 m 2,442 ft / 744 m 169.41° 180.67° Asphalt 168 ft / 51 m 0 ft / 0 m
32 100 ft / 30 m 3,357 ft / 1,023 m 308.23° 319.49° Asphalt 0 ft / 0 m 0 ft / 0 m
36 100 ft / 30 m 2,442 ft / 744 m 349.42° 0.68° Asphalt 0 ft / 0 m 0 ft / 0 m

Map

Weather


0- 5 10 15 20 25 30 35+ Temperature / ° C

Clouds and Precipitation
Forecast for 2018-05-21 18:00 UTC. Updated 28 minutes ago

Ground ~20,000 ft ~40,000 ft Winds

METAR

KDSV 211654Z AUTO 00000KT 10SM CLR 21/06 A3024 RMK AO2 SLP249 T02060061

TAF

Not found

Frequencies

Recorded 118.32 MHz ASOS
Approach 123.70 MHz ROCHESTER APP/DEP
Unicom 123.00 MHz CTAF/UNICOM
Warning: Do not use this data for real-world aviation or navigation. No guarantee of current accuracy is given.